Nashville, TN

1:08 PM CDT on October 31, 2014 (GMT -0500)
Nashville International | Change Station
CLOSE
Current Station
Airport
Location: Nashville,
Elevation: 597 ft
Nearby Weather Stations
Active Advisory: Freeze Warning

Elev 597 ft 36.12 °N, 86.69 °W | Updated 15 minutes ago

Overcast
Overcast
50 °F
Feels Like 50 °F
N
9
Wind Variable Wind from NW

Today
High -- | Low -- °F
--% Chance of Precip.
Yesterday
High -- | Low -- °F
Precip. -- in
7:08 AM 5:52 PM
First Quarter, 57% visible
Pressure 30.01 in
Visibility 10.0 miles
Clouds Scattered Clouds 1600 ft
Mostly Cloudy 2200 ft
Overcast 2800 ft
Dew Point 45 °F
Humidity 83%
Rainfall 0.02 in
Snow Depth Not available.
UV 2 out of 12
Pollen .30 out of 12
Air Quality Not available.
Flu Activity Not available.
METAR KBNA 311753Z 32008KT 10SM SCT016 BKN022 OVC028 10/07 A3001 RMK AO2 RAB44E53 SLP162 P0000 60002 T01000072 10111 20100 58006

More Conditions Fewer Conditions

Pressure 30.01 in
Visibility 10.0 miles
Clouds Scattered Clouds 1600 ft
Mostly Cloudy 2200 ft
Overcast 2800 ft
Dew Point 45 °F
Humidity 83%
Rainfall 0.02 in
Snow Depth Not available.
UV 2 out of 12
Pollen .30 out of 12
Air Quality Not available.
Flu Activity Not available.
METAR KBNA 311753Z 32008KT 10SM SCT016 BKN022 OVC028 10/07 A3001 RMK AO2 RAB44E53 SLP162 P0000 60002 T01000072 10111 20100 58006

More Conditions Fewer Conditions

10-Day Weather Forecast

Almanac

Astronomy

Oct. 31, 2014 Rise Set
Actual Time
Civil Twilight
Nautical Twilight
Astronomical Twilight
Moon
Length of Visible Light
Length of Day
Tomorrow will be .
, % of the Moon is Illuminated

Today's Extremes

State Highs State Lows

Community

WunderPhotos

Upload Photos

1,766,679 photos uploaded!

WunderBlogs® & News

Nearby

Air Quality

  Air Quality AQ Index Pollutant
Not available.

Snow Depth

Station Depth Elevation

Earthquake Activity

City Distance Mag. Time & Date
Minimum magnitude displayed is 2.5.

Coastal Water Temperatures

Place Temperature

Nearby Weather Stations